Time;durP1;ratioP1;P1;durP2;ratioP2;P2;SDS_P1;SDS_P2;PMS_P1;PMS_P2;Temp;Humidity;BMP_temperature;BMP_pressure;BME280_temperature;BME280_humidity;BME280_pressure;Samples;Min_cycle;Max_cycle;Signal;HPM_P1;HPM_P2
2022/08/06 00:01:32;;;;;;;;;21.00;20.60;;;;;28.69;44.23;98483.09;6284269;27;96639;-60
2022/08/06 00:04:37;;;;;;;;;18.20;18.20;;;;;28.67;44.44;98477.09;6267371;27;98559;-59
2022/08/06 00:07:40;;;;;;;;;24.25;21.50;;;;;28.65;44.27;98476.63;6262028;27;96487;-60
2022/08/06 00:10:52;;;;;;;;;20.00;18.80;;;;;28.63;44.55;98486.47;6290452;27;97698;-61
2022/08/06 00:13:55;;;;;;;;;19.40;19.00;;;;;28.60;45.00;98490.72;6286208;27;96891;-60
2022/08/06 00:17:02;;;;;;;;;25.00;24.60;;;;;28.56;45.23;98486.25;6282111;27;96775;-60
2022/08/06 00:20:08;;;;;;;;;20.60;19.60;;;;;28.52;44.94;98485.31;6283824;27;97430;-61
2022/08/06 00:23:12;;;;;;;;;21.00;20.00;;;;;28.46;45.56;98487.53;6272202;27;96995;-61
2022/08/06 00:26:21;;;;;;;;;22.80;21.80;;;;;28.42;45.35;98490.19;6279037;27;98292;-60
2022/08/06 00:29:30;;;;;;;;;23.40;22.60;;;;;28.38;45.83;98480.16;6272852;27;96971;-59
2022/08/06 00:32:49;;;;;;;;;25.80;22.80;;;;;28.32;45.94;98489.84;6275715;27;97251;-59
2022/08/06 00:35:54;;;;;;;;;23.80;22.80;;;;;28.29;46.21;98496.09;6267631;27;97512;-60
2022/08/06 00:39:04;;;;;;;;;21.00;20.00;;;;;28.22;45.97;98491.13;6266839;27;96458;-59
2022/08/06 00:42:12;;;;;;;;;21.60;20.00;;;;;28.20;46.52;98496.19;6273359;27;97676;-61
2022/08/06 00:45:19;;;;;;;;;20.20;19.80;;;;;28.18;46.30;98497.72;6265730;27;96937;-61
2022/08/06 00:48:27;;;;;;;;;24.40;21.80;;;;;28.13;46.79;98495.19;6265492;27;97170;-61
2022/08/06 00:51:50;;;;;;;;;24.20;22.80;;;;;28.08;46.91;98498.16;6264222;27;97006;-60
2022/08/06 00:54:54;;;;;;;;;23.50;22.50;;;;;28.04;46.57;98495.28;6289778;27;97497;-60
2022/08/06 00:58:00;;;;;;;;;22.00;21.00;;;;;27.98;46.68;98494.69;6290640;27;97434;-62
2022/08/06 01:01:03;;;;;;;;;25.40;24.00;;;;;28.00;46.80;98492.34;6290471;27;97122;-62
2022/08/06 01:04:19;;;;;;;;;21.40;19.40;;;;;27.98;46.78;98497.44;6282545;27;98092;-59
2022/08/06 01:07:28;;;;;;;;;23.40;21.40;;;;;27.93;47.28;98477.47;6274402;27;97398;-60
2022/08/06 01:10:52;;;;;;;;;25.60;24.00;;;;;27.94;47.27;98481.88;6275036;27;97449;-60
2022/08/06 01:13:57;;;;;;;;;22.60;20.20;;;;;27.90;47.17;98489.25;6290263;27;96639;-60
2022/08/06 01:17:15;;;;;;;;;25.00;24.00;;;;;27.85;47.29;98489.47;6290542;27;97023;-59
2022/08/06 01:20:43;;;;;;;;;32.00;30.00;;;;;27.80;47.31;98487.75;6289461;27;96979;-60
2022/08/06 01:24:34;;;;;;;;;24.00;23.00;;;;;27.75;47.19;98478.84;6289172;27;97567;-59
2022/08/06 01:27:47;;;;;;;;;23.00;22.00;;;;;27.72;47.35;98479.53;6265939;27;96506;-60
2022/08/06 01:30:55;;;;;;;;;24.00;24.00;;;;;27.68;47.24;98482.19;6265142;27;97633;-61
2022/08/06 01:34:04;;;;;;;;;25.00;24.00;;;;;27.64;47.52;98474.91;6264444;27;97656;-61
2022/08/06 01:37:15;;;;;;;;;24.00;23.00;;;;;27.61;46.98;98479.19;6280235;27;97538;-61
2022/08/06 01:40:25;;;;;;;;;24.00;22.00;;;;;27.56;47.41;98485.72;6288882;27;96974;-60
2022/08/06 01:43:32;;;;;;;;;25.50;23.50;;;;;27.51;47.20;98485.94;6288637;27;96958;-60
2022/08/06 01:47:00;;;;;;;;;22.40;21.40;;;;;27.47;47.09;98492.47;6284826;27;97016;-60
2022/08/06 01:50:10;;;;;;;;;25.00;25.00;;;;;27.42;47.56;98490.72;6265799;27;96494;-60
2022/08/06 01:53:20;;;;;;;;;25.00;22.40;;;;;27.39;47.51;98485.88;6264606;27;96519;-60
2022/08/06 01:56:48;;;;;;;;;25.00;25.00;;;;;27.36;47.91;98492.13;6264417;27;97476;-60
2022/08/06 02:00:05;;;;;;;;;23.60;21.60;;;;;27.16;47.75;98479.13;6263785;27;97181;-61
2022/08/06 02:03:19;;;;;;;;;18.00;16.75;;;;;27.36;47.70;98513.44;6263799;27;96674;-60
2022/08/06 02:06:31;;;;;;;;;24.00;24.00;;;;;27.36;47.56;98519.81;6264111;27;96883;-59
2022/08/06 02:09:36;;;;;;;;;25.00;24.00;;;;;27.36;47.87;98519.00;6268114;27;97281;-59
2022/08/06 02:12:45;;;;;;;;;27.20;27.00;;;;;27.37;47.80;98524.16;6289289;27;96404;-57
2022/08/06 02:15:52;;;;;;;;;32.40;30.00;;;;;27.37;47.54;98513.09;6285547;27;98680;-58
2022/08/06 02:19:04;;;;;;;;;28.60;27.60;;;;;26.83;47.87;98429.25;6288943;27;96846;-61
2022/08/06 02:22:17;;;;;;;;;28.00;27.00;;;;;27.33;47.99;98503.84;6288425;27;97454;-61
2022/08/06 02:25:31;;;;;;;;;30.60;29.60;;;;;27.33;48.11;98517.69;6288407;27;96451;-56
2022/08/06 02:28:39;;;;;;;;;28.60;27.60;;;;;27.33;48.00;98519.66;6264005;27;96459;-59
2022/08/06 02:31:46;;;;;;;;;31.00;29.80;;;;;27.17;47.66;98499.31;6269430;27;97605;-60
2022/08/06 02:34:54;;;;;;;;;25.60;24.00;;;;;27.32;47.83;98542.97;6287549;27;97745;-60
2022/08/06 02:38:04;;;;;;;;;29.75;28.00;;;;;27.33;47.77;98537.06;6280250;27;98098;-59
2022/08/06 02:41:19;;;;;;;;;18.40;17.80;;;;;27.35;47.98;98542.28;6275466;27;96256;-60
2022/08/06 02:44:32;;;;;;;;;21.75;20.00;;;;;27.34;48.10;98551.72;6288180;27;96314;-55
2022/08/06 02:47:43;;;;;;;;;24.60;23.00;;;;;27.34;48.10;98541.47;6279680;27;97014;-60
2022/08/06 02:51:10;;;;;;;;;25.40;23.60;;;;;27.40;48.12;98555.91;6287632;27;96730;-58
2022/08/06 02:54:40;;;;;;;;;36.00;32.00;;;;;27.40;48.02;98561.44;6263606;27;96820;-58
2022/08/06 02:57:52;;;;;;;;;31.00;29.80;;;;;27.39;48.31;98563.41;6281595;27;96593;-61
2022/08/06 03:01:05;;;;;;;;;29.20;26.20;;;;;27.38;48.18;98572.84;6285905;27;97670;-61
2022/08/06 03:04:14;;;;;;;;;35.60;32.40;;;;;27.35;48.19;98559.69;6286622;27;97343;-56
2022/08/06 03:07:20;;;;;;;;;35.40;33.00;;;;;27.36;48.61;98577.13;6273688;27;97478;-57
2022/08/06 03:10:32;;;;;;;;;42.00;36.80;;;;;27.36;48.41;98585.44;6262894;27;97713;-61
2022/08/06 03:13:38;;;;;;;;;32.00;29.50;;;;;27.34;48.71;98583.00;6262791;27;97603;-61
2022/08/06 03:16:43;;;;;;;;;30.80;29.40;;;;;27.23;48.72;98572.66;6261708;27;97656;-62
2022/08/06 03:19:55;;;;;;;;;28.80;26.80;;;;;27.32;48.65;98590.03;6280880;27;98623;-58
2022/08/06 03:23:06;;;;;;;;;28.20;26.20;;;;;27.30;48.74;98593.13;6286783;27;97154;-62
2022/08/06 03:26:11;;;;;;;;;30.60;29.60;;;;;27.29;48.85;98591.50;6263980;27;96769;-57
2022/08/06 03:29:16;;;;;;;;;33.40;30.20;;;;;27.30;48.63;98601.44;6264472;27;97435;-61
2022/08/06 03:32:21;;;;;;;;;29.00;27.00;;;;;27.31;48.74;98605.00;6262361;27;97627;-62
2022/08/06 03:35:46;;;;;;;;;28.40;27.40;;;;;27.26;48.81;98608.78;6262961;27;96664;-60
2022/08/06 03:38:57;;;;;;;;;30.00;28.00;;;;;27.28;49.13;98609.25;6282871;27;97490;-60
2022/08/06 03:42:01;;;;;;;;;30.00;28.20;;;;;27.22;48.93;98607.03;6266865;27;97624;-57
2022/08/06 03:45:11;;;;;;;;;21.67;21.67;;;;;27.34;48.79;98618.97;6266020;27;96506;-63
2022/08/06 03:48:38;;;;;;;;;24.40;23.00;;;;;27.35;48.86;98617.03;6267858;27;96881;-55
2022/08/06 03:51:47;;;;;;;;;27.80;27.00;;;;;27.41;48.48;98621.22;6267169;27;97433;-60
2022/08/06 03:55:02;;;;;;;;;32.00;30.00;;;;;27.46;48.60;98632.91;6266380;27;96914;-61
2022/08/06 03:58:12;;;;;;;;;30.60;29.40;;;;;27.52;48.61;98639.03;6284702;27;97531;-61
2022/08/06 04:01:35;;;;;;;;;31.25;28.75;;;;;27.42;47.93;98629.16;6290136;27;96514;-57
2022/08/06 04:04:53;;;;;;;;;29.00;28.50;;;;;27.60;48.25;98649.25;6275966;27;97302;-58
2022/08/06 04:08:00;;;;;;;;;27.00;26.60;;;;;27.68;48.12;98662.19;6282355;27;97428;-57
2022/08/06 04:11:09;;;;;;;;;26.00;26.00;;;;;27.75;47.98;98664.44;6291294;27;96970;-59
2022/08/06 04:14:34;;;;;;;;;24.50;24.00;;;;;27.77;47.96;98668.47;6288698;27;97416;-55
2022/08/06 04:17:45;;;;;;;;;25.25;23.50;;;;;27.82;47.81;98673.00;6266292;27;96633;-59
2022/08/06 04:20:54;;;;;;;;;28.25;27.25;;;;;27.87;47.52;98670.00;6269857;27;99086;-58
2022/08/06 04:24:19;;;;;;;;;32.00;29.00;;;;;27.90;47.55;98666.56;6267217;27;97076;-59
2022/08/06 04:27:28;;;;;;;;;26.80;24.80;;;;;27.94;47.77;98673.06;6278964;27;97776;-59
2022/08/06 04:30:35;;;;;;;;;23.60;21.00;;;;;27.99;47.36;98679.19;6268480;27;96875;-61
2022/08/06 04:33:41;;;;;;;;;29.00;28.00;;;;;28.04;47.64;98689.25;6265762;27;96507;-57
2022/08/06 04:36:50;;;;;;;;;32.40;29.80;;;;;28.07;47.29;98679.44;6273889;27;97372;-62
2022/08/06 04:39:58;;;;;;;;;32.00;29.60;;;;;28.12;47.48;98688.38;6265896;27;96799;-62
2022/08/06 04:43:03;;;;;;;;;31.60;30.00;;;;;28.17;47.55;98699.25;6266290;27;97039;-57
2022/08/06 04:46:08;;;;;;;;;24.00;22.00;;;;;28.22;47.55;98703.75;6268660;27;96986;-61
2022/08/06 04:49:19;;;;;;;;;30.80;29.20;;;;;28.25;47.48;98703.06;6282064;27;97031;-63
2022/08/06 04:52:24;;;;;;;;;34.40;30.40;;;;;28.31;47.40;98719.16;6280879;27;97160;-59
2022/08/06 04:55:49;;;;;;;;;26.80;23.40;;;;;28.40;47.48;98727.38;6287710;27;97233;-60
2022/08/06 04:59:06;;;;;;;;;31.80;30.00;;;;;28.45;47.26;98738.25;6266476;27;97314;-60
2022/08/06 05:02:10;;;;;;;;;30.00;29.00;;;;;28.53;47.29;98747.66;6266487;27;97014;-62
2022/08/06 05:05:17;;;;;;;;;31.60;28.60;;;;;28.58;47.11;98748.25;6273971;27;97371;-60
2022/08/06 05:08:26;;;;;;;;;28.60;28.00;;;;;28.67;47.06;98760.03;6267597;27;97565;-59
2022/08/06 05:11:34;;;;;;;;;29.80;28.00;;;;;28.75;46.76;98770.25;6289389;27;97639;-59
2022/08/06 05:15:03;;;;;;;;;31.20;29.20;;;;;28.84;46.46;98770.16;6264965;27;97023;-61
2022/08/06 05:18:14;;;;;;;;;30.00;28.00;;;;;28.91;46.07;98770.41;6280044;27;97870;-59
2022/08/06 05:21:40;;;;;;;;;35.00;31.00;;;;;28.93;46.03;98792.25;6283954;27;97287;-57
2022/08/06 05:25:05;;;;;;;;;31.75;30.00;;;;;28.94;46.33;98796.63;6290292;27;98010;-56
2022/08/06 05:28:20;;;;;;;;;29.00;27.00;;;;;28.96;45.93;98805.44;6290030;27;96591;-59
2022/08/06 05:31:31;;;;;;;;;28.20;26.20;;;;;28.98;45.94;98815.03;6275645;27;97318;-58
2022/08/06 05:34:41;;;;;;;;;28.60;27.80;;;;;29.04;46.05;98821.16;6283522;27;97286;-58
2022/08/06 05:37:54;;;;;;;;;29.60;29.00;;;;;29.10;45.86;98830.91;6264696;27;97520;-61
2022/08/06 05:41:08;;;;;;;;;27.00;26.00;;;;;29.19;45.83;98832.41;6280057;27;97408;-62
2022/08/06 05:44:14;;;;;;;;;26.80;25.60;;;;;29.26;44.83;98834.63;6265429;27;96940;-57
2022/08/06 05:47:23;;;;;;;;;28.00;26.50;;;;;29.32;44.87;98841.59;6287310;27;96924;-60
2022/08/06 05:50:32;;;;;;;;;29.00;27.00;;;;;29.32;44.79;98863.00;6275117;27;97585;-61
2022/08/06 05:53:39;;;;;;;;;27.00;24.40;;;;;29.36;44.51;98864.75;6264416;27;97482;-57
2022/08/06 05:57:06;;;;;;;;;24.25;23.25;;;;;29.36;44.58;98873.09;6268699;27;97092;-57
2022/08/06 06:00:14;;;;;;;;;26.00;26.00;;;;;29.35;44.33;98881.75;6287318;27;96641;-59
2022/08/06 06:03:36;;;;;;;;;29.00;25.00;;;;;29.30;44.35;98896.66;6289370;27;96757;-61
2022/08/06 06:06:40;;;;;;;;;30.00;28.40;;;;;29.26;44.95;98895.72;6287496;27;97395;-60
2022/08/06 06:09:46;;;;;;;;;28.40;26.60;;;;;29.24;44.94;98901.59;6271592;27;96925;-59
2022/08/06 06:13:06;;;;;;;;;27.00;26.40;;;;;29.20;44.69;98914.56;6281017;27;97443;-61
2022/08/06 06:16:36;;;;;;;;;25.40;23.40;;;;;29.23;44.78;98922.19;6263856;27;97084;-57
2022/08/06 06:19:50;;;;;;;;;24.20;24.20;;;;;29.13;45.15;98925.41;6263827;27;96824;-62
2022/08/06 06:23:07;;;;;;;;;21.40;20.00;;;;;29.18;44.77;98925.19;6266498;27;96596;-63
2022/08/06 06:26:22;;;;;;;;;23.00;22.00;;;;;29.20;45.12;98931.22;6283769;27;96685;-62
2022/08/06 06:29:44;;;;;;;;;23.50;23.00;;;;;29.20;44.95;98933.19;6270293;27;98343;-60
2022/08/06 06:33:18;;;;;;;;;25.00;23.00;;;;;29.19;44.94;98935.16;6268198;27;97046;-59
2022/08/06 06:36:50;;;;;;;;;26.00;25.00;;;;;29.19;45.52;98949.03;6272287;27;96883;-60
2022/08/06 06:40:13;;;;;;;;;25.00;22.75;;;;;29.15;45.59;98950.88;6267744;27;97332;-62
2022/08/06 06:43:23;;;;;;;;;21.80;21.80;;;;;29.13;45.38;98955.13;6280433;27;97012;-57
2022/08/06 06:46:47;;;;;;;;;23.00;21.40;;;;;29.11;45.39;98957.44;6287212;27;97493;-59
2022/08/06 06:49:58;;;;;;;;;24.00;23.00;;;;;29.13;45.91;98957.91;6288635;27;96445;-58
2022/08/06 06:53:12;;;;;;;;;23.60;22.60;;;;;29.16;45.56;98960.00;6280122;27;96638;-62
2022/08/06 06:56:20;;;;;;;;;21.20;19.20;;;;;29.13;45.73;98961.50;6269104;27;96947;-59
2022/08/06 06:59:33;;;;;;;;;23.00;22.00;;;;;29.17;45.65;98965.22;6275008;27;96857;-60
2022/08/06 07:02:59;;;;;;;;;21.00;20.00;;;;;29.20;45.61;98963.72;6275052;27;96801;-59
2022/08/06 07:06:08;;;;;;;;;22.00;19.25;;;;;29.24;45.74;98964.66;6264037;27;96468;-58
2022/08/06 07:09:17;;;;;;;;;21.40;21.00;;;;;29.29;46.09;98968.03;6262983;27;96969;-61
2022/08/06 07:12:44;;;;;;;;;18.60;18.00;;;;;29.42;45.93;98976.44;6262633;27;97450;-58
2022/08/06 07:15:54;;;;;;;;;22.00;21.75;;;;;29.52;45.82;98987.06;6270637;27;97023;-60
2022/08/06 07:19:01;;;;;;;;;27.00;26.60;;;;;29.60;45.50;98987.00;6262545;27;98046;-61
2022/08/06 07:22:11;;;;;;;;;24.00;24.00;;;;;29.68;45.17;98994.41;6262704;27;96884;-59
2022/08/06 07:25:20;;;;;;;;;25.00;23.60;;;;;29.77;45.43;99002.63;6263011;27;98290;-61
2022/08/06 07:28:27;;;;;;;;;19.20;18.20;;;;;29.80;45.24;99004.75;6262662;27;96485;-60
2022/08/06 07:31:32;;;;;;;;;20.00;19.00;;;;;29.84;45.48;99015.97;6265555;27;96748;-57
2022/08/06 07:34:41;;;;;;;;;21.50;21.00;;;;;29.85;45.63;99018.41;6276268;27;97456;-57
2022/08/06 07:37:51;;;;;;;;;20.00;19.00;;;;;29.87;45.38;99035.53;6271980;27;97460;-55
2022/08/06 07:40:59;;;;;;;;;22.60;21.60;;;;;29.89;44.79;99036.06;6264178;27;96635;-59
2022/08/06 07:44:14;;;;;;;;;24.00;24.00;;;;;29.86;44.46;99024.78;6263757;27;98357;-58
2022/08/06 07:47:23;;;;;;;;;22.25;21.25;;;;;30.01;44.01;99040.78;6274448;27;97445;-58
2022/08/06 07:50:50;;;;;;;;;24.00;22.40;;;;;30.13;44.25;99054.72;6263040;27;97018;-59
2022/08/06 07:53:57;;;;;;;;;26.40;26.40;;;;;30.21;43.60;99052.97;6262248;27;96581;-64
2022/08/06 07:57:10;;;;;;;;;23.40;22.00;;;;;30.28;43.80;99053.22;6262382;27;97494;-61
2022/08/06 08:00:17;;;;;;;;;28.00;25.50;;;;;30.31;43.32;99050.53;6262016;27;97461;-59
2022/08/06 08:07:03;;;;;;;;;28.00;27.00;;;;;30.38;43.71;99072.22;6271602;27;97512;-59
2022/08/06 08:10:12;;;;;;;;;24.60;24.00;;;;;30.39;42.86;99077.44;6266458;27;96675;-60
2022/08/06 08:13:19;;;;;;;;;23.40;23.00;;;;;30.40;43.06;99078.22;6273697;27;96269;-56
2022/08/06 08:16:43;;;;;;;;;24.00;24.00;;;;;30.39;43.49;99079.41;6270730;27;98131;-60
2022/08/06 08:19:47;;;;;;;;;24.60;22.40;;;;;30.38;43.06;99088.91;6269701;27;99517;-58
2022/08/06 08:22:51;;;;;;;;;22.00;22.00;;;;;30.31;43.35;99089.47;6279844;27;97639;-59
2022/08/06 08:25:58;;;;;;;;;23.60;23.60;;;;;30.07;43.38;99053.31;6276338;27;97628;-59
2022/08/06 08:29:01;;;;;;;;;21.80;19.80;;;;;30.27;43.18;99090.53;6286908;27;97196;-59
2022/08/06 08:32:08;;;;;;;;;20.00;19.00;;;;;30.25;43.68;99099.22;6266901;27;97028;-60
2022/08/06 08:35:18;;;;;;;;;21.00;20.40;;;;;30.25;43.29;99090.09;6267487;27;96555;-62
2022/08/06 08:38:22;;;;;;;;;21.00;20.00;;;;;30.22;43.39;99093.53;6279299;27;96720;-59
2022/08/06 08:41:35;;;;;;;;;21.60;19.40;;;;;30.22;43.56;99099.09;6264872;27;97091;-57
2022/08/06 08:44:55;;;;;;;;;18.50;17.50;;;;;30.20;43.71;99102.25;6269469;27;96775;-58
2022/08/06 08:48:00;;;;;;;;;21.00;20.00;;;;;30.21;43.95;99098.28;6291154;27;97499;-57
2022/08/06 08:51:09;;;;;;;;;21.60;19.60;;;;;30.23;43.98;99095.16;6286756;27;96601;-57
2022/08/06 08:54:17;;;;;;;;;18.50;17.00;;;;;30.29;44.03;99105.72;6290076;27;96669;-60
2022/08/06 08:57:26;;;;;;;;;18.00;16.60;;;;;30.36;42.88;99100.38;6266330;27;97061;-59
2022/08/06 09:00:49;;;;;;;;;16.00;15.60;;;;;30.43;42.50;99114.53;6265865;27;97424;-58
2022/08/06 09:03:57;;;;;;;;;16.40;16.00;;;;;30.47;42.12;99109.94;6275647;27;97003;-60
2022/08/06 09:07:05;;;;;;;;;17.00;16.00;;;;;30.54;42.46;99117.72;6266237;27;97435;-58
2022/08/06 09:10:11;;;;;;;;;16.40;16.00;;;;;30.60;42.24;99123.81;6265785;27;97333;-58
2022/08/06 09:13:19;;;;;;;;;16.50;15.50;;;;;30.66;40.84;99125.22;6265680;27;97950;-59
2022/08/06 09:16:26;;;;;;;;;16.00;15.00;;;;;30.71;40.57;99123.03;6270370;27;98954;-59
2022/08/06 09:19:34;;;;;;;;;14.40;14.40;;;;;30.73;40.61;99131.84;6286572;27;97831;-61
2022/08/06 09:22:44;;;;;;;;;9.50;9.50;;;;;30.74;40.25;99139.00;6266682;27;96755;-60
2022/08/06 09:25:49;;;;;;;;;7.80;7.80;;;;;30.73;39.53;99136.59;6276909;27;96977;-60
2022/08/06 09:28:55;;;;;;;;;8.00;8.00;;;;;30.71;38.63;99142.50;6277470;27;96844;-61
2022/08/06 09:31:59;;;;;;;;;8.25;8.25;;;;;30.68;38.86;99137.66;6288888;27;96872;-60
2022/08/06 09:35:03;;;;;;;;;10.00;10.00;;;;;30.68;39.10;99136.84;6281733;27;97995;-59
2022/08/06 09:38:28;;;;;;;;;6.75;6.00;;;;;30.51;39.33;99123.94;6271398;27;97565;-59
2022/08/06 09:41:35;;;;;;;;;8.40;8.40;;;;;30.72;38.92;99149.69;6267346;27;96743;-58
2022/08/06 09:44:40;;;;;;;;;8.00;8.00;;;;;30.76;39.27;99156.19;6283382;27;97378;-60
2022/08/06 09:47:44;;;;;;;;;11.80;11.80;;;;;30.78;39.39;99165.00;6279932;27;97880;-60
2022/08/06 09:51:03;;;;;;;;;9.40;9.40;;;;;30.79;38.81;99166.63;6273388;27;97414;-59
2022/08/06 09:54:15;;;;;;;;;9.00;9.00;;;;;30.78;38.71;99164.19;6286061;27;97458;-60
2022/08/06 09:57:29;;;;;;;;;11.00;9.00;;;;;30.66;39.18;99147.50;6289150;27;96815;-61
2022/08/06 10:00:40;;;;;;;;;7.75;7.50;;;;;30.78;39.46;99169.75;6275803;27;96642;-60
2022/08/06 10:03:49;;;;;;;;;10.60;10.60;;;;;30.57;39.42;99141.22;6265413;27;96814;-59
2022/08/06 10:07:11;;;;;;;;;9.00;9.00;;;;;30.74;39.43;99172.41;6273693;27;97436;-59
2022/08/06 10:10:17;;;;;;;;;7.25;7.25;;;;;30.76;39.48;99178.44;6267050;27;97690;-57
2022/08/06 10:13:40;;;;;;;;;7.00;7.00;;;;;30.77;39.42;99176.47;6274698;27;97454;-59
2022/08/06 10:17:12;;;;;;;;;9.50;9.00;;;;;30.76;39.46;99189.59;6279628;27;97565;-59
2022/08/06 10:20:18;;;;;;;;;7.40;7.40;;;;;30.75;39.20;99185.19;6275289;27;97321;-60
2022/08/06 10:23:21;;;;;;;;;5.75;5.75;;;;;30.67;39.22;99176.94;6291284;27;97482;-60
2022/08/06 10:26:28;;;;;;;;;8.00;8.00;;;;;30.71;39.49;99192.59;6288225;27;96871;-59
2022/08/06 10:29:39;;;;;;;;;7.20;7.20;;;;;30.71;39.75;99195.38;6287664;27;97242;-59
2022/08/06 10:32:49;;;;;;;;;9.00;9.00;;;;;30.59;39.66;99166.75;6287988;27;97298;-58
2022/08/06 10:36:04;;;;;;;;;5.80;5.80;;;;;30.71;39.43;99198.16;6282689;27;97812;-60
2022/08/06 10:39:11;;;;;;;;;8.00;7.00;;;;;30.70;39.92;99202.09;6289161;27;96807;-58
2022/08/06 10:42:34;;;;;;;;;7.60;7.60;;;;;30.66;39.98;99211.50;6263740;27;97158;-59
2022/08/06 10:45:39;;;;;;;;;6.80;6.00;;;;;30.59;40.00;99208.50;6258877;27;98220;-58
2022/08/06 10:48:55;;;;;;;;;6.00;6.00;;;;;30.54;40.34;99217.88;6271059;27;97398;-59
2022/08/06 10:52:04;;;;;;;;;6.60;6.00;;;;;30.51;40.26;99219.38;6282906;27;96885;-60
2022/08/06 10:55:13;;;;;;;;;8.00;8.00;;;;;30.43;40.94;99220.25;6283471;27;97197;-60
2022/08/06 10:58:17;;;;;;;;;6.60;6.00;;;;;30.39;41.19;99221.28;6284075;27;96907;-59
2022/08/06 11:01:29;;;;;;;;;5.00;5.00;;;;;30.36;41.84;99228.34;6277889;27;96828;-60
2022/08/06 11:04:51;;;;;;;;;7.00;6.40;;;;;30.33;42.00;99234.63;6270633;27;96844;-59
2022/08/06 11:08:16;;;;;;;;;7.40;7.40;;;;;30.28;42.43;99232.03;6273283;27;97146;-60
2022/08/06 11:11:56;;;;;;;;;6.00;6.00;;;;;30.22;43.11;99238.16;6269762;27;96703;-60
2022/08/06 11:15:08;;;;;;;;;7.00;7.00;;;;;30.18;43.04;99242.78;6274515;27;96864;-59
2022/08/06 11:18:13;;;;;;;;;6.60;6.00;;;;;30.15;43.51;99246.25;6274241;27;96821;-62
2022/08/06 11:21:38;;;;;;;;;8.00;7.25;;;;;30.09;44.29;99240.91;6272969;27;97084;-59
2022/08/06 11:25:02;;;;;;;;;6.67;6.67;;;;;30.03;43.90;99245.06;6267499;27;97473;-59
2022/08/06 11:28:59;;;;;;;;;7.25;7.00;;;;;29.91;44.62;99239.44;6273433;27;97436;-62
2022/08/06 11:32:39;;;;;;;;;6.60;6.20;;;;;29.85;45.62;99251.91;6267705;27;98028;-59
2022/08/06 11:35:48;;;;;;;;;9.00;9.00;;;;;29.74;46.21;99255.41;6275301;27;97065;-60
2022/08/06 11:39:00;;;;;;;;;8.60;8.00;;;;;29.64;46.56;99256.66;6287251;27;96588;-57
2022/08/06 11:42:44;;;;;;;;;10.00;9.50;;;;;29.57;47.38;99254.41;6278656;27;98581;-60
2022/08/06 11:46:23;;;;;;;;;9.00;9.00;;;;;29.53;47.20;99249.84;6277113;27;96813;-61
2022/08/06 11:49:40;;;;;;;;;9.20;9.00;;;;;29.50;47.48;99253.31;6286602;27;96473;-60
2022/08/06 11:52:46;;;;;;;;;10.00;10.00;;;;;29.46;48.16;99255.97;6284082;27;97199;-60
2022/08/06 11:56:06;;;;;;;;;12.40;11.40;;;;;29.44;48.06;99255.47;6270618;27;97052;-57
2022/08/06 11:59:14;;;;;;;;;9.00;9.00;;;;;29.42;48.54;99252.22;6265866;27;97488;-60
2022/08/06 12:02:38;;;;;;;;;10.25;10.00;;;;;29.43;48.86;99258.59;6283726;27;96970;-61
2022/08/06 12:05:47;;;;;;;;;10.40;10.20;;;;;29.39;48.99;99249.31;6263166;27;97311;-61
2022/08/06 12:09:08;;;;;;;;;9.00;9.00;;;;;29.37;48.73;99257.97;6287314;27;98402;-61
2022/08/06 12:12:37;;;;;;;;;9.00;9.00;;;;;29.33;49.17;99259.78;6278140;27;97557;-59
2022/08/06 12:15:46;;;;;;;;;8.00;8.00;;;;;29.31;49.62;99259.34;6267100;27;96787;-60
2022/08/06 12:19:15;;;;;;;;;9.00;9.00;;;;;29.27;49.19;99263.91;6278623;27;97720;-60
2022/08/06 12:22:22;;;;;;;;;7.00;6.80;;;;;29.06;48.80;99243.59;6285785;27;96832;-60
2022/08/06 12:25:32;;;;;;;;;8.60;8.60;;;;;29.15;48.89;99264.63;6275283;27;96914;-60
2022/08/06 12:28:39;;;;;;;;;8.00;8.00;;;;;29.10;48.39;99269.53;6266224;27;96627;-61
2022/08/06 12:31:43;;;;;;;;;5.00;5.00;;;;;29.05;48.25;99280.84;6265796;27;97030;-60
2022/08/06 12:34:54;;;;;;;;;4.00;4.00;;;;;29.01;48.19;99280.69;6273816;27;98345;-59
2022/08/06 12:38:01;;;;;;;;;5.60;5.60;;;;;28.95;48.19;99276.47;6272320;27;96528;-61
2022/08/06 12:41:08;;;;;;;;;6.00;6.00;;;;;28.87;47.64;99284.84;6303337;27;96703;-60
2022/08/06 12:44:15;;;;;;;;;5.60;5.60;;;;;28.82;47.66;99292.22;6270150;27;97455;-61
2022/08/06 12:47:39;;;;;;;;;7.00;7.00;;;;;28.78;47.32;99290.44;6265501;27;96745;-60
2022/08/06 12:51:05;;;;;;;;;8.00;8.00;;;;;28.71;47.33;99296.47;6287097;27;97601;-59
2022/08/06 12:54:16;;;;;;;;;4.00;4.00;;;;;28.66;47.27;99299.41;6284356;27;97834;-59
2022/08/06 12:57:31;;;;;;;;;7.00;7.00;;;;;28.59;46.85;99293.53;6275326;27;96727;-62
2022/08/06 13:00:58;;;;;;;;;6.00;5.00;;;;;28.50;47.22;99289.97;6269869;27;96941;-61
2022/08/06 13:04:09;;;;;;;;;8.00;8.00;;;;;28.43;46.95;99287.72;6266237;27;97442;-60
2022/08/06 13:07:19;;;;;;;;;12.00;11.40;;;;;28.42;46.52;99288.06;6269103;27;96552;-62
2022/08/06 13:10:23;;;;;;;;;8.20;8.20;;;;;28.34;46.77;99299.97;6280178;27;97072;-61
2022/08/06 13:13:40;;;;;;;;;10.25;10.00;;;;;28.37;46.47;99304.84;6275544;27;97538;-63
2022/08/06 13:17:13;;;;;;;;;9.00;7.50;;;;;28.31;46.07;99304.22;6265151;27;97180;-62
2022/08/06 13:20:39;;;;;;;;;9.00;9.00;;;;;28.27;46.05;99303.25;6277151;27;98073;-60
2022/08/06 13:23:47;;;;;;;;;10.80;10.80;;;;;28.25;45.77;99313.84;6289412;27;98017;-62
2022/08/06 13:26:54;;;;;;;;;11.60;11.00;;;;;28.19;45.74;99315.16;6265095;27;96758;-61
2022/08/06 13:30:01;;;;;;;;;12.00;10.00;;;;;28.12;45.26;99312.06;6265038;27;96392;-61
2022/08/06 13:33:26;;;;;;;;;9.20;9.00;;;;;27.99;45.27;99297.22;6266192;27;97751;-58
2022/08/06 13:36:31;;;;;;;;;10.75;10.00;;;;;28.04;45.50;99321.19;6275047;27;97458;-57
2022/08/06 13:39:50;;;;;;;;;10.00;10.00;;;;;27.99;45.64;99316.63;6270880;27;97296;-60
2022/08/06 13:42:54;;;;;;;;;12.40;12.00;;;;;27.95;45.49;99325.91;6289037;27;97472;-58
2022/08/06 13:46:05;;;;;;;;;11.60;10.60;;;;;27.86;45.56;99325.88;6285616;27;98115;-60
2022/08/06 13:49:14;;;;;;;;;13.25;12.25;;;;;27.79;45.73;99322.78;6265827;27;97376;-57
2022/08/06 13:52:17;;;;;;;;;10.00;10.00;;;;;27.62;45.63;99291.47;6264486;27;97559;-57
2022/08/06 13:55:25;;;;;;;;;10.00;10.00;;;;;27.72;45.78;99314.13;6267946;27;97497;-60
2022/08/06 13:58:49;;;;;;;;;11.00;11.00;;;;;27.69;45.91;99319.50;6257646;27;96879;-60
2022/08/06 14:01:52;;;;;;;;;15.00;13.00;;;;;27.70;46.19;99321.16;6280255;27;96703;-59
2022/08/06 14:05:03;;;;;;;;;13.50;12.50;;;;;27.63;46.50;99320.81;6275741;27;97459;-60
2022/08/06 14:08:22;;;;;;;;;10.20;9.60;;;;;27.60;46.45;99332.53;6269465;27;97420;-60
2022/08/06 14:11:38;;;;;;;;;11.20;10.80;;;;;27.58;46.39;99316.22;6264518;27;98190;-60
2022/08/06 14:14:41;;;;;;;;;14.00;13.25;;;;;27.56;46.54;99324.84;6263640;27;96663;-60
2022/08/06 14:17:50;;;;;;;;;11.50;11.00;;;;;27.56;46.50;99322.09;6283206;27;96825;-61
2022/08/06 14:20:55;;;;;;;;;17.00;16.00;;;;;27.55;46.82;99323.25;6283121;27;96833;-59
2022/08/06 14:23:59;;;;;;;;;14.00;14.00;;;;;27.56;46.58;99329.59;6271940;27;97471;-59
2022/08/06 14:27:10;;;;;;;;;14.00;14.00;;;;;27.31;46.75;99291.56;6263924;27;96580;-57
2022/08/06 14:30:19;;;;;;;;;13.50;13.50;;;;;27.54;46.58;99329.91;6272075;27;96793;-61
2022/08/06 14:33:36;;;;;;;;;13.25;12.75;;;;;27.56;47.06;99332.38;6285585;27;97547;-61
2022/08/06 14:36:51;;;;;;;;;9.00;9.00;;;;;27.56;46.92;99326.84;6283312;27;96758;-57
2022/08/06 14:39:54;;;;;;;;;12.60;11.60;;;;;27.54;46.69;99334.63;6273679;27;97633;-60
2022/08/06 14:46:37;;;;;;;;;9.25;9.00;;;;;27.49;46.49;99329.25;6195641;28;96671;-61
2022/08/06 14:49:41;;;;;;;;;9.20;9.00;;;;;27.46;46.26;99336.25;6207369;28;96877;-60
2022/08/06 14:52:55;;;;;;;;;10.00;9.00;;;;;27.44;46.58;99335.72;6270992;27;97506;-59
2022/08/06 14:55:59;;;;;;;;;11.00;11.00;;;;;27.42;46.84;99337.16;6273833;27;97631;-57
2022/08/06 14:59:10;;;;;;;;;10.80;10.20;;;;;27.41;47.37;99336.38;6280408;27;97421;-61